Terminal Aerodrome Forecast
Issued by NWS St Louis, MO

Home | Current Version | Previous Version | Text Only | Print | Product List | Glossary On
Versions: 1 2 3 4 5 6 7 8 9 10 11 12 13 14 15 16 17 18 19 20
465
FTUS43 KLSX 281140
TAFCOU
TAF
KCOU 281140Z 2812/2912 10007KT P6SM OVC060
     FM281500 12011KT P6SM VCSH BKN035
     FM281900 10008KT P6SM OVC020
     FM290600 03006KT 4SM -SHRA VCTS OVC015CB
     FM291000 05011KT 3SM -RA OVC008=

USA.gov is the U.S. government's official web portal to all federal, state and local government web resources and services.